sensor_id;sensor_type;location;lat;lon;timestamp;P1;durP1;ratioP1;P2;durP2;ratioP2
9140;SDS011;46330;50.822;7.126;2022-07-12T00:00:28;22.27;;;15.77;;
9140;SDS011;46330;50.822;7.126;2022-07-12T00:02:56;21.38;;;15.82;;
9140;SDS011;46330;50.822;7.126;2022-07-12T00:05:24;21.80;;;15.60;;
9140;SDS011;46330;50.822;7.126;2022-07-12T00:07:53;19.70;;;14.98;;
9140;SDS011;46330;50.822;7.126;2022-07-12T00:10:22;21.02;;;16.02;;
9140;SDS011;46330;50.822;7.126;2022-07-12T00:12:49;21.38;;;16.23;;
9140;SDS011;46330;50.822;7.126;2022-07-12T00:15:18;19.33;;;15.48;;
9140;SDS011;46330;50.822;7.126;2022-07-12T00:17:46;22.08;;;15.80;;
9140;SDS011;46330;50.822;7.126;2022-07-12T00:20:14;20.45;;;16.00;;
9140;SDS011;46330;50.822;7.126;2022-07-12T00:22:42;19.63;;;15.45;;
9140;SDS011;46330;50.822;7.126;2022-07-12T00:25:14;19.30;;;15.55;;
9140;SDS011;46330;50.822;7.126;2022-07-12T00:27:42;18.05;;;14.75;;
9140;SDS011;46330;50.822;7.126;2022-07-12T00:30:10;19.90;;;14.88;;
9140;SDS011;46330;50.822;7.126;2022-07-12T00:32:39;20.40;;;16.23;;
9140;SDS011;46330;50.822;7.126;2022-07-12T00:35:07;20.25;;;15.27;;
9140;SDS011;46330;50.822;7.126;2022-07-12T00:37:35;20.83;;;16.13;;
9140;SDS011;46330;50.822;7.126;2022-07-12T00:40:04;20.33;;;15.52;;
9140;SDS011;46330;50.822;7.126;2022-07-12T00:42:36;20.77;;;15.43;;
9140;SDS011;46330;50.822;7.126;2022-07-12T00:45:05;22.40;;;16.00;;
9140;SDS011;46330;50.822;7.126;2022-07-12T00:47:35;21.05;;;15.60;;
9140;SDS011;46330;50.822;7.126;2022-07-12T00:50:07;22.20;;;15.65;;
9140;SDS011;46330;50.822;7.126;2022-07-12T00:52:36;24.70;;;15.38;;
9140;SDS011;46330;50.822;7.126;2022-07-12T00:55:05;20.55;;;15.63;;
9140;SDS011;46330;50.822;7.126;2022-07-12T00:57:34;22.80;;;16.88;;
9140;SDS011;46330;50.822;7.126;2022-07-12T01:00:05;21.50;;;16.13;;
9140;SDS011;46330;50.822;7.126;2022-07-12T01:02:34;19.90;;;15.55;;
9140;SDS011;46330;50.822;7.126;2022-07-12T01:05:03;22.20;;;15.70;;
9140;SDS011;46330;50.822;7.126;2022-07-12T01:07:32;18.40;;;15.27;;
9140;SDS011;46330;50.822;7.126;2022-07-12T01:10:02;19.70;;;15.32;;
9140;SDS011;46330;50.822;7.126;2022-07-12T01:12:31;17.63;;;14.45;;
9140;SDS011;46330;50.822;7.126;2022-07-12T01:15:01;18.02;;;14.00;;
9140;SDS011;46330;50.822;7.126;2022-07-12T01:17:30;18.13;;;14.15;;
9140;SDS011;46330;50.822;7.126;2022-07-12T01:19:58;18.67;;;14.32;;
9140;SDS011;46330;50.822;7.126;2022-07-12T01:22:27;19.70;;;15.38;;
9140;SDS011;46330;50.822;7.126;2022-07-12T01:25:00;19.73;;;14.65;;
9140;SDS011;46330;50.822;7.126;2022-07-12T01:27:28;18.10;;;14.02;;
9140;SDS011;46330;50.822;7.126;2022-07-12T01:29:57;20.30;;;14.68;;
9140;SDS011;46330;50.822;7.126;2022-07-12T01:32:25;18.10;;;14.20;;
9140;SDS011;46330;50.822;7.126;2022-07-12T01:34:54;19.05;;;14.77;;
9140;SDS011;46330;50.822;7.126;2022-07-12T01:37:23;16.88;;;14.13;;
9140;SDS011;46330;50.822;7.126;2022-07-12T01:39:53;18.45;;;13.98;;
9140;SDS011;46330;50.822;7.126;2022-07-12T01:42:24;17.38;;;14.48;;
9140;SDS011;46330;50.822;7.126;2022-07-12T01:44:53;19.67;;;14.98;;
9140;SDS011;46330;50.822;7.126;2022-07-12T01:47:22;20.65;;;15.02;;
9140;SDS011;46330;50.822;7.126;2022-07-12T01:49:51;19.23;;;14.48;;
9140;SDS011;46330;50.822;7.126;2022-07-12T01:52:20;18.90;;;14.60;;
9140;SDS011;46330;50.822;7.126;2022-07-12T01:54:48;19.77;;;14.80;;
9140;SDS011;46330;50.822;7.126;2022-07-12T01:57:16;23.85;;;15.77;;
9140;SDS011;46330;50.822;7.126;2022-07-12T01:59:45;20.02;;;14.82;;
9140;SDS011;46330;50.822;7.126;2022-07-12T02:02:13;20.52;;;15.18;;
9140;SDS011;46330;50.822;7.126;2022-07-12T02:04:42;19.45;;;14.25;;
9140;SDS011;46330;50.822;7.126;2022-07-12T02:07:10;19.80;;;14.10;;
9140;SDS011;46330;50.822;7.126;2022-07-12T02:09:38;19.67;;;14.25;;
9140;SDS011;46330;50.822;7.126;2022-07-12T02:12:06;20.95;;;14.85;;
9140;SDS011;46330;50.822;7.126;2022-07-12T02:14:34;17.98;;;14.07;;
9140;SDS011;46330;50.822;7.126;2022-07-12T02:17:03;21.35;;;14.65;;
9140;SDS011;46330;50.822;7.126;2022-07-12T02:19:31;19.98;;;14.95;;
9140;SDS011;46330;50.822;7.126;2022-07-12T02:21:59;19.70;;;14.20;;
9140;SDS011;46330;50.822;7.126;2022-07-12T02:24:27;16.98;;;13.50;;
9140;SDS011;46330;50.822;7.126;2022-07-12T02:26:55;19.90;;;14.23;;
9140;SDS011;46330;50.822;7.126;2022-07-12T02:29:23;17.42;;;14.35;;
9140;SDS011;46330;50.822;7.126;2022-07-12T02:31:50;18.13;;;14.48;;
9140;SDS011;46330;50.822;7.126;2022-07-12T02:34:20;18.50;;;13.70;;
9140;SDS011;46330;50.822;7.126;2022-07-12T02:36:48;20.25;;;13.77;;
9140;SDS011;46330;50.822;7.126;2022-07-12T02:39:16;17.90;;;13.68;;
9140;SDS011;46330;50.822;7.126;2022-07-12T02:41:44;16.42;;;12.88;;
9140;SDS011;46330;50.822;7.126;2022-07-12T02:44:12;15.98;;;13.38;;
9140;SDS011;46330;50.822;7.126;2022-07-12T02:46:41;16.45;;;12.98;;
9140;SDS011;46330;50.822;7.126;2022-07-12T02:49:09;17.88;;;13.02;;
9140;SDS011;46330;50.822;7.126;2022-07-12T02:51:38;19.40;;;14.18;;
9140;SDS011;46330;50.822;7.126;2022-07-12T02:54:06;17.92;;;14.38;;
9140;SDS011;46330;50.822;7.126;2022-07-12T02:56:34;27.58;;;22.20;;
9140;SDS011;46330;50.822;7.126;2022-07-12T02:59:02;22.10;;;15.88;;
9140;SDS011;46330;50.822;7.126;2022-07-12T03:01:30;21.23;;;16.55;;
9140;SDS011;46330;50.822;7.126;2022-07-12T03:03:58;18.88;;;14.02;;
9140;SDS011;46330;50.822;7.126;2022-07-12T03:06:26;17.77;;;13.57;;
9140;SDS011;46330;50.822;7.126;2022-07-12T03:08:55;17.08;;;13.60;;
9140;SDS011;46330;50.822;7.126;2022-07-12T03:11:23;17.90;;;13.75;;
9140;SDS011;46330;50.822;7.126;2022-07-12T03:13:51;18.20;;;13.95;;
9140;SDS011;46330;50.822;7.126;2022-07-12T03:16:19;18.40;;;13.68;;
9140;SDS011;46330;50.822;7.126;2022-07-12T03:18:47;17.15;;;13.85;;
9140;SDS011;46330;50.822;7.126;2022-07-12T03:21:15;18.25;;;13.55;;
9140;SDS011;46330;50.822;7.126;2022-07-12T03:23:42;17.52;;;13.40;;
9140;SDS011;46330;50.822;7.126;2022-07-12T03:26:12;16.83;;;13.38;;
9140;SDS011;46330;50.822;7.126;2022-07-12T03:28:40;17.13;;;13.50;;
9140;SDS011;46330;50.822;7.126;2022-07-12T03:31:08;17.98;;;13.20;;
9140;SDS011;46330;50.822;7.126;2022-07-12T03:33:36;16.58;;;13.02;;
9140;SDS011;46330;50.822;7.126;2022-07-12T03:36:04;16.67;;;13.43;;
9140;SDS011;46330;50.822;7.126;2022-07-12T03:38:34;16.92;;;13.70;;
9140;SDS011;46330;50.822;7.126;2022-07-12T03:41:03;16.38;;;13.73;;
9140;SDS011;46330;50.822;7.126;2022-07-12T03:43:32;15.57;;;13.55;;
9140;SDS011;46330;50.822;7.126;2022-07-12T03:46:01;17.35;;;12.32;;
9140;SDS011;46330;50.822;7.126;2022-07-12T03:48:29;13.98;;;12.43;;
9140;SDS011;46330;50.822;7.126;2022-07-12T03:50:57;14.18;;;11.63;;
9140;SDS011;46330;50.822;7.126;2022-07-12T03:53:24;15.75;;;12.18;;
9140;SDS011;46330;50.822;7.126;2022-07-12T03:55:52;18.50;;;13.45;;
9140;SDS011;46330;50.822;7.126;2022-07-12T03:58:20;17.42;;;13.80;;
9140;SDS011;46330;50.822;7.126;2022-07-12T04:00:49;17.63;;;13.88;;
9140;SDS011;46330;50.822;7.126;2022-07-12T04:03:17;16.08;;;12.90;;
9140;SDS011;46330;50.822;7.126;2022-07-12T04:05:45;16.63;;;13.15;;
9140;SDS011;46330;50.822;7.126;2022-07-12T04:08:13;16.40;;;13.43;;
9140;SDS011;46330;50.822;7.126;2022-07-12T04:10:41;17.58;;;13.57;;
9140;SDS011;46330;50.822;7.126;2022-07-12T04:13:09;17.60;;;13.82;;
9140;SDS011;46330;50.822;7.126;2022-07-12T04:15:37;16.48;;;13.13;;
9140;SDS011;46330;50.822;7.126;2022-07-12T04:18:07;18.30;;;13.23;;
9140;SDS011;46330;50.822;7.126;2022-07-12T04:20:35;18.83;;;13.70;;
9140;SDS011;46330;50.822;7.126;2022-07-12T04:23:03;18.00;;;13.95;;
9140;SDS011;46330;50.822;7.126;2022-07-12T04:25:31;18.70;;;13.75;;
9140;SDS011;46330;50.822;7.126;2022-07-12T04:27:59;17.10;;;12.38;;
9140;SDS011;46330;50.822;7.126;2022-07-12T04:30:27;22.83;;;12.15;;
9140;SDS011;46330;50.822;7.126;2022-07-12T04:32:55;14.38;;;11.60;;
9140;SDS011;46330;50.822;7.126;2022-07-12T04:35:24;13.18;;;10.60;;
9140;SDS011;46330;50.822;7.126;2022-07-12T04:37:52;14.02;;;10.48;;
9140;SDS011;46330;50.822;7.126;2022-07-12T04:40:21;11.77;;;10.07;;
9140;SDS011;46330;50.822;7.126;2022-07-12T04:42:49;11.63;;;9.57;;
9140;SDS011;46330;50.822;7.126;2022-07-12T04:45:17;16.73;;;9.95;;
9140;SDS011;46330;50.822;7.126;2022-07-12T04:47:45;14.43;;;9.73;;
9140;SDS011;46330;50.822;7.126;2022-07-12T04:50:13;14.65;;;10.25;;
9140;SDS011;46330;50.822;7.126;2022-07-12T04:52:42;13.65;;;10.20;;
9140;SDS011;46330;50.822;7.126;2022-07-12T04:55:10;11.38;;;9.23;;
9140;SDS011;46330;50.822;7.126;2022-07-12T04:57:38;11.90;;;8.95;;
9140;SDS011;46330;50.822;7.126;2022-07-12T05:00:06;13.27;;;8.45;;
9140;SDS011;46330;50.822;7.126;2022-07-12T05:02:35;11.30;;;8.65;;
9140;SDS011;46330;50.822;7.126;2022-07-12T05:05:03;9.80;;;7.88;;
9140;SDS011;46330;50.822;7.126;2022-07-12T05:07:32;9.25;;;7.85;;
9140;SDS011;46330;50.822;7.126;2022-07-12T05:10:01;10.18;;;8.02;;
9140;SDS011;46330;50.822;7.126;2022-07-12T05:12:29;10.48;;;7.93;;
9140;SDS011;46330;50.822;7.126;2022-07-12T05:14:57;10.07;;;7.50;;
9140;SDS011;46330;50.822;7.126;2022-07-12T05:17:25;9.35;;;7.82;;
9140;SDS011;46330;50.822;7.126;2022-07-12T05:19:53;12.48;;;7.38;;
9140;SDS011;46330;50.822;7.126;2022-07-12T05:22:21;9.38;;;7.30;;
9140;SDS011;46330;50.822;7.126;2022-07-12T05:24:50;9.13;;;6.93;;
9140;SDS011;46330;50.822;7.126;2022-07-12T05:27:19;8.27;;;6.47;;
9140;SDS011;46330;50.822;7.126;2022-07-12T05:29:47;8.05;;;6.28;;
9140;SDS011;46330;50.822;7.126;2022-07-12T05:32:14;7.72;;;6.28;;
9140;SDS011;46330;50.822;7.126;2022-07-12T05:34:42;9.48;;;7.00;;
9140;SDS011;46330;50.822;7.126;2022-07-12T05:37:10;8.77;;;7.15;;
9140;SDS011;46330;50.822;7.126;2022-07-12T05:39:38;11.10;;;7.00;;
9140;SDS011;46330;50.822;7.126;2022-07-12T05:42:10;11.57;;;6.40;;
9140;SDS011;46330;50.822;7.126;2022-07-12T05:44:39;8.02;;;6.55;;
9140;SDS011;46330;50.822;7.126;2022-07-12T05:47:07;6.97;;;5.78;;
9140;SDS011;46330;50.822;7.126;2022-07-12T05:49:35;7.40;;;6.00;;
9140;SDS011;46330;50.822;7.126;2022-07-12T05:52:03;8.60;;;5.80;;
9140;SDS011;46330;50.822;7.126;2022-07-12T05:54:49;7.80;;;6.03;;
9140;SDS011;46330;50.822;7.126;2022-07-12T05:57:17;8.52;;;5.80;;
9140;SDS011;46330;50.822;7.126;2022-07-12T05:59:47;6.38;;;5.53;;
9140;SDS011;46330;50.822;7.126;2022-07-12T06:02:15;8.80;;;5.88;;
9140;SDS011;46330;50.822;7.126;2022-07-12T06:04:43;8.32;;;5.32;;
9140;SDS011;46330;50.822;7.126;2022-07-12T06:07:16;10.07;;;5.90;;
9140;SDS011;46330;50.822;7.126;2022-07-12T06:09:44;9.15;;;6.00;;
9140;SDS011;46330;50.822;7.126;2022-07-12T06:12:13;8.60;;;5.68;;
9140;SDS011;46330;50.822;7.126;2022-07-12T06:14:40;5.32;;;4.70;;
9140;SDS011;46330;50.822;7.126;2022-07-12T06:17:10;8.88;;;5.18;;
9140;SDS011;46330;50.822;7.126;2022-07-12T06:19:38;8.88;;;5.63;;
9140;SDS011;46330;50.822;7.126;2022-07-12T06:22:05;14.05;;;6.20;;
9140;SDS011;46330;50.822;7.126;2022-07-12T06:24:33;7.50;;;5.55;;
9140;SDS011;46330;50.822;7.126;2022-07-12T06:27:01;7.82;;;5.90;;
9140;SDS011;46330;50.822;7.126;2022-07-12T06:29:29;10.40;;;6.90;;
9140;SDS011;46330;50.822;7.126;2022-07-12T06:31:57;10.00;;;7.70;;
9140;SDS011;46330;50.822;7.126;2022-07-12T06:34:26;11.02;;;8.02;;
9140;SDS011;46330;50.822;7.126;2022-07-12T06:36:54;10.13;;;7.32;;
9140;SDS011;46330;50.822;7.126;2022-07-12T06:39:22;8.70;;;7.20;;
9140;SDS011;46330;50.822;7.126;2022-07-12T06:41:50;8.23;;;7.05;;
9140;SDS011;46330;50.822;7.126;2022-07-12T06:44:18;10.57;;;7.60;;
9140;SDS011;46330;50.822;7.126;2022-07-12T06:46:46;11.75;;;7.22;;
9140;SDS011;46330;50.822;7.126;2022-07-12T06:49:15;8.88;;;7.70;;
9140;SDS011;46330;50.822;7.126;2022-07-12T06:51:44;10.80;;;8.25;;
9140;SDS011;46330;50.822;7.126;2022-07-12T06:54:12;11.55;;;7.18;;
9140;SDS011;46330;50.822;7.126;2022-07-12T06:56:40;8.95;;;7.60;;
9140;SDS011;46330;50.822;7.126;2022-07-12T06:59:08;10.38;;;7.63;;
9140;SDS011;46330;50.822;7.126;2022-07-12T07:01:41;10.73;;;7.65;;
9140;SDS011;46330;50.822;7.126;2022-07-12T07:04:09;11.90;;;7.35;;
9140;SDS011;46330;50.822;7.126;2022-07-12T07:06:37;10.45;;;6.88;;
9140;SDS011;46330;50.822;7.126;2022-07-12T07:09:06;10.07;;;6.50;;
9140;SDS011;46330;50.822;7.126;2022-07-12T07:11:35;9.02;;;6.18;;
9140;SDS011;46330;50.822;7.126;2022-07-12T07:14:03;7.40;;;5.80;;
9140;SDS011;46330;50.822;7.126;2022-07-12T07:16:31;6.88;;;5.57;;
9140;SDS011;46330;50.822;7.126;2022-07-12T07:18:59;7.63;;;5.93;;
9140;SDS011;46330;50.822;7.126;2022-07-12T07:21:28;7.47;;;5.22;;
9140;SDS011;46330;50.822;7.126;2022-07-12T07:23:56;6.05;;;4.88;;
9140;SDS011;46330;50.822;7.126;2022-07-12T07:26:25;7.40;;;5.53;;
9140;SDS011;46330;50.822;7.126;2022-07-12T07:28:53;5.85;;;4.85;;
9140;SDS011;46330;50.822;7.126;2022-07-12T07:31:39;6.30;;;5.10;;
9140;SDS011;46330;50.822;7.126;2022-07-12T07:34:07;10.07;;;5.50;;
9140;SDS011;46330;50.822;7.126;2022-07-12T07:36:36;7.88;;;5.45;;
9140;SDS011;46330;50.822;7.126;2022-07-12T07:39:03;8.18;;;5.22;;
9140;SDS011;46330;50.822;7.126;2022-07-12T07:41:33;6.22;;;5.30;;
9140;SDS011;46330;50.822;7.126;2022-07-12T07:44:00;6.45;;;4.68;;
9140;SDS011;46330;50.822;7.126;2022-07-12T07:46:28;7.95;;;5.50;;
9140;SDS011;46330;50.822;7.126;2022-07-12T07:48:56;7.88;;;5.32;;
9140;SDS011;46330;50.822;7.126;2022-07-12T07:51:24;9.07;;;4.50;;
9140;SDS011;46330;50.822;7.126;2022-07-12T07:53:52;5.95;;;4.90;;
9140;SDS011;46330;50.822;7.126;2022-07-12T07:56:20;6.22;;;4.50;;
9140;SDS011;46330;50.822;7.126;2022-07-12T07:58:50;7.05;;;5.00;;
9140;SDS011;46330;50.822;7.126;2022-07-12T08:01:19;6.82;;;4.07;;
9140;SDS011;46330;50.822;7.126;2022-07-12T08:04:08;8.02;;;4.32;;
9140;SDS011;46330;50.822;7.126;2022-07-12T08:06:37;8.07;;;4.40;;
9140;SDS011;46330;50.822;7.126;2022-07-12T08:09:04;5.57;;;4.10;;
9140;SDS011;46330;50.822;7.126;2022-07-12T08:11:38;5.47;;;4.10;;
9140;SDS011;46330;50.822;7.126;2022-07-12T08:14:08;5.68;;;4.18;;
9140;SDS011;46330;50.822;7.126;2022-07-12T08:16:37;4.95;;;4.45;;
9140;SDS011;46330;50.822;7.126;2022-07-12T08:19:05;8.38;;;4.53;;
9140;SDS011;46330;50.822;7.126;2022-07-12T08:21:33;6.55;;;4.25;;
9140;SDS011;46330;50.822;7.126;2022-07-12T08:24:01;4.75;;;4.00;;
9140;SDS011;46330;50.822;7.126;2022-07-12T08:26:29;5.55;;;4.10;;
9140;SDS011;46330;50.822;7.126;2022-07-12T08:28:58;5.07;;;3.95;;
9140;SDS011;46330;50.822;7.126;2022-07-12T08:31:27;5.32;;;3.42;;
9140;SDS011;46330;50.822;7.126;2022-07-12T08:33:55;5.35;;;3.90;;
9140;SDS011;46330;50.822;7.126;2022-07-12T08:36:22;3.92;;;3.10;;
9140;SDS011;46330;50.822;7.126;2022-07-12T08:38:58;2.95;;;2.60;;
9140;SDS011;46330;50.822;7.126;2022-07-12T08:41:26;3.13;;;2.65;;
9140;SDS011;46330;50.822;7.126;2022-07-12T08:43:55;3.60;;;2.80;;
9140;SDS011;46330;50.822;7.126;2022-07-12T08:46:23;3.25;;;2.63;;
9140;SDS011;46330;50.822;7.126;2022-07-12T08:48:53;3.00;;;2.47;;
9140;SDS011;46330;50.822;7.126;2022-07-12T08:51:21;5.18;;;2.30;;
9140;SDS011;46330;50.822;7.126;2022-07-12T08:53:55;2.83;;;1.92;;
9140;SDS011;46330;50.822;7.126;2022-07-12T08:56:33;3.28;;;1.70;;
9140;SDS011;46330;50.822;7.126;2022-07-12T08:59:10;2.80;;;2.20;;
9140;SDS011;46330;50.822;7.126;2022-07-12T09:01:40;5.32;;;2.20;;
9140;SDS011;46330;50.822;7.126;2022-07-12T09:04:11;2.80;;;1.90;;
9140;SDS011;46330;50.822;7.126;2022-07-12T09:06:40;2.35;;;1.70;;
9140;SDS011;46330;50.822;7.126;2022-07-12T09:09:08;3.35;;;2.25;;
9140;SDS011;46330;50.822;7.126;2022-07-12T09:11:37;2.75;;;1.95;;
9140;SDS011;46330;50.822;7.126;2022-07-12T09:14:06;4.38;;;2.30;;
9140;SDS011;46330;50.822;7.126;2022-07-12T09:16:34;2.90;;;2.10;;
9140;SDS011;46330;50.822;7.126;2022-07-12T09:19:14;4.15;;;1.90;;
9140;SDS011;46330;50.822;7.126;2022-07-12T09:21:48;3.33;;;1.80;;
9140;SDS011;46330;50.822;7.126;2022-07-12T09:24:17;2.25;;;1.65;;
9140;SDS011;46330;50.822;7.126;2022-07-12T09:26:45;3.10;;;1.80;;
9140;SDS011;46330;50.822;7.126;2022-07-12T09:29:14;5.72;;;1.77;;
9140;SDS011;46330;50.822;7.126;2022-07-12T09:31:43;2.42;;;1.80;;
9140;SDS011;46330;50.822;7.126;2022-07-12T09:34:31;5.05;;;1.60;;
9140;SDS011;46330;50.822;7.126;2022-07-12T09:37:16;1.77;;;1.48;;
9140;SDS011;46330;50.822;7.126;2022-07-12T09:39:45;3.05;;;1.48;;
9140;SDS011;46330;50.822;7.126;2022-07-12T09:42:15;1.70;;;1.60;;
9140;SDS011;46330;50.822;7.126;2022-07-12T09:44:43;2.55;;;1.60;;
9140;SDS011;46330;50.822;7.126;2022-07-12T09:47:11;4.95;;;1.85;;
9140;SDS011;46330;50.822;7.126;2022-07-12T09:49:43;2.38;;;1.00;;
9140;SDS011;46330;50.822;7.126;2022-07-12T09:52:12;1.10;;;1.10;;
9140;SDS011;46330;50.822;7.126;2022-07-12T09:54:44;1.42;;;1.08;;
9140;SDS011;46330;50.822;7.126;2022-07-12T09:57:16;3.33;;;1.30;;
9140;SDS011;46330;50.822;7.126;2022-07-12T09:59:49;1.42;;;1.23;;
9140;SDS011;46330;50.822;7.126;2022-07-12T10:02:19;1.80;;;1.25;;
9140;SDS011;46330;50.822;7.126;2022-07-12T10:04:52;1.42;;;1.33;;
9140;SDS011;46330;50.822;7.126;2022-07-12T10:07:21;1.40;;;1.30;;
9140;SDS011;46330;50.822;7.126;2022-07-12T10:09:51;1.90;;;0.95;;
9140;SDS011;46330;50.822;7.126;2022-07-12T10:12:21;0.98;;;0.70;;
9140;SDS011;46330;50.822;7.126;2022-07-12T10:14:51;1.23;;;0.80;;
9140;SDS011;46330;50.822;7.126;2022-07-12T10:17:23;0.70;;;0.70;;
9140;SDS011;46330;50.822;7.126;2022-07-12T10:22:43;3.53;;;0.80;;
9140;SDS011;46330;50.822;7.126;2022-07-12T10:25:30;7.53;;;0.88;;
9140;SDS011;46330;50.822;7.126;2022-07-12T10:27:59;4.05;;;0.70;;
9140;SDS011;46330;50.822;7.126;2022-07-12T10:30:27;1.02;;;0.70;;
9140;SDS011;46330;50.822;7.126;2022-07-12T10:32:57;1.15;;;0.90;;
9140;SDS011;46330;50.822;7.126;2022-07-12T10:35:28;2.28;;;0.82;;
9140;SDS011;46330;50.822;7.126;2022-07-12T10:38:14;1.00;;;0.80;;
9140;SDS011;46330;50.822;7.126;2022-07-12T10:40:44;0.63;;;0.63;;
9140;SDS011;46330;50.822;7.126;2022-07-12T10:43:14;0.77;;;0.77;;
9140;SDS011;46330;50.822;7.126;2022-07-12T10:45:44;0.70;;;0.70;;
9140;SDS011;46330;50.822;7.126;2022-07-12T10:48:22;1.30;;;0.90;;
9140;SDS011;46330;50.822;7.126;2022-07-12T10:50:55;0.63;;;0.63;;
9140;SDS011;46330;50.822;7.126;2022-07-12T10:53:26;1.98;;;0.80;;
9140;SDS011;46330;50.822;7.126;2022-07-12T10:56:12;1.83;;;0.90;;
9140;SDS011;46330;50.822;7.126;2022-07-12T11:01:11;1.13;;;0.70;;
9140;SDS011;46330;50.822;7.126;2022-07-12T11:03:42;0.98;;;0.90;;
9140;SDS011;46330;50.822;7.126;2022-07-12T11:06:13;0.68;;;0.68;;
9140;SDS011;46330;50.822;7.126;2022-07-12T11:08:55;1.05;;;0.85;;
9140;SDS011;46330;50.822;7.126;2022-07-12T11:11:25;0.82;;;0.63;;
9140;SDS011;46330;50.822;7.126;2022-07-12T11:13:54;0.77;;;0.77;;
9140;SDS011;46330;50.822;7.126;2022-07-12T11:16:23;0.60;;;0.60;;
9140;SDS011;46330;50.822;7.126;2022-07-12T11:18:52;0.88;;;0.80;;
9140;SDS011;46330;50.822;7.126;2022-07-12T11:21:23;0.98;;;0.80;;
9140;SDS011;46330;50.822;7.126;2022-07-12T11:23:52;1.10;;;0.80;;
9140;SDS011;46330;50.822;7.126;2022-07-12T11:26:21;2.38;;;0.73;;
9140;SDS011;46330;50.822;7.126;2022-07-12T11:28:50;0.80;;;0.80;;
9140;SDS011;46330;50.822;7.126;2022-07-12T11:31:18;1.42;;;0.70;;
9140;SDS011;46330;50.822;7.126;2022-07-12T11:33:48;0.75;;;0.75;;
9140;SDS011;46330;50.822;7.126;2022-07-12T11:36:18;0.70;;;0.70;;
9140;SDS011;46330;50.822;7.126;2022-07-12T11:38:48;1.38;;;0.70;;
9140;SDS011;46330;50.822;7.126;2022-07-12T11:41:16;1.65;;;0.68;;
9140;SDS011;46330;50.822;7.126;2022-07-12T11:43:46;0.98;;;0.80;;
9140;SDS011;46330;50.822;7.126;2022-07-12T11:46:14;0.95;;;0.60;;
9140;SDS011;46330;50.822;7.126;2022-07-12T11:48:42;1.73;;;0.75;;
9140;SDS011;46330;50.822;7.126;2022-07-12T11:51:11;3.47;;;0.90;;
9140;SDS011;46330;50.822;7.126;2022-07-12T11:53:40;2.38;;;0.60;;
9140;SDS011;46330;50.822;7.126;2022-07-12T11:56:09;2.85;;;0.80;;
9140;SDS011;46330;50.822;7.126;2022-07-12T11:58:38;0.80;;;0.60;;
9140;SDS011;46330;50.822;7.126;2022-07-12T12:01:09;1.23;;;0.70;;
9140;SDS011;46330;50.822;7.126;2022-07-12T12:03:42;2.45;;;0.70;;
9140;SDS011;46330;50.822;7.126;2022-07-12T12:06:11;0.63;;;0.63;;
9140;SDS011;46330;50.822;7.126;2022-07-12T12:08:40;0.82;;;0.70;;
9140;SDS011;46330;50.822;7.126;2022-07-12T12:11:09;1.00;;;0.70;;
9140;SDS011;46330;50.822;7.126;2022-07-12T12:13:37;0.68;;;0.60;;
9140;SDS011;46330;50.822;7.126;2022-07-12T12:16:05;0.85;;;0.80;;
9140;SDS011;46330;50.822;7.126;2022-07-12T12:18:34;1.65;;;0.60;;
9140;SDS011;46330;50.822;7.126;2022-07-12T12:21:05;2.50;;;0.70;;
9140;SDS011;46330;50.822;7.126;2022-07-12T12:23:35;0.80;;;0.60;;
9140;SDS011;46330;50.822;7.126;2022-07-12T12:26:09;0.57;;;0.50;;
9140;SDS011;46330;50.822;7.126;2022-07-12T12:28:45;1.35;;;0.70;;
9140;SDS011;46330;50.822;7.126;2022-07-12T12:31:15;1.95;;;0.70;;
9140;SDS011;46330;50.822;7.126;2022-07-12T12:33:45;1.50;;;0.60;;
9140;SDS011;46330;50.822;7.126;2022-07-12T12:36:18;0.82;;;0.82;;
9140;SDS011;46330;50.822;7.126;2022-07-12T12:38:49;1.23;;;0.60;;
9140;SDS011;46330;50.822;7.126;2022-07-12T12:41:20;1.67;;;0.60;;
9140;SDS011;46330;50.822;7.126;2022-07-12T12:43:56;0.70;;;0.70;;
9140;SDS011;46330;50.822;7.126;2022-07-12T12:46:50;0.75;;;0.75;;
9140;SDS011;46330;50.822;7.126;2022-07-12T12:49:20;1.85;;;0.77;;
9140;SDS011;46330;50.822;7.126;2022-07-12T12:52:09;1.10;;;1.00;;
9140;SDS011;46330;50.822;7.126;2022-07-12T12:54:37;1.73;;;0.80;;
9140;SDS011;46330;50.822;7.126;2022-07-12T12:57:06;1.58;;;0.80;;
9140;SDS011;46330;50.822;7.126;2022-07-12T12:59:35;2.50;;;1.02;;
9140;SDS011;46330;50.822;7.126;2022-07-12T13:02:04;1.67;;;0.80;;
9140;SDS011;46330;50.822;7.126;2022-07-12T13:04:34;0.70;;;0.70;;
9140;SDS011;46330;50.822;7.126;2022-07-12T13:07:04;1.02;;;0.60;;
9140;SDS011;46330;50.822;7.126;2022-07-12T13:09:40;1.30;;;0.77;;
9140;SDS011;46330;50.822;7.126;2022-07-12T13:12:08;0.98;;;0.77;;
9140;SDS011;46330;50.822;7.126;2022-07-12T13:14:36;1.83;;;0.90;;
9140;SDS011;46330;50.822;7.126;2022-07-12T13:17:04;1.33;;;0.90;;
9140;SDS011;46330;50.822;7.126;2022-07-12T13:19:33;3.10;;;0.98;;
9140;SDS011;46330;50.822;7.126;2022-07-12T13:22:01;1.35;;;0.90;;
9140;SDS011;46330;50.822;7.126;2022-07-12T13:24:28;0.77;;;0.77;;
9140;SDS011;46330;50.822;7.126;2022-07-12T13:26:58;1.58;;;1.05;;
9140;SDS011;46330;50.822;7.126;2022-07-12T13:29:26;2.60;;;1.05;;
9140;SDS011;46330;50.822;7.126;2022-07-12T13:31:54;2.42;;;0.80;;
9140;SDS011;46330;50.822;7.126;2022-07-12T13:34:22;3.03;;;1.13;;
9140;SDS011;46330;50.822;7.126;2022-07-12T13:36:51;2.05;;;1.30;;
9140;SDS011;46330;50.822;7.126;2022-07-12T13:39:19;1.13;;;0.90;;
9140;SDS011;46330;50.822;7.126;2022-07-12T13:42:06;1.48;;;1.25;;
9140;SDS011;46330;50.822;7.126;2022-07-12T13:44:34;1.88;;;0.95;;
9140;SDS011;46330;50.822;7.126;2022-07-12T13:47:02;1.02;;;0.90;;
9140;SDS011;46330;50.822;7.126;2022-07-12T13:49:31;2.60;;;0.90;;
9140;SDS011;46330;50.822;7.126;2022-07-12T13:51:58;3.17;;;0.90;;
9140;SDS011;46330;50.822;7.126;2022-07-12T13:54:27;2.13;;;1.10;;
9140;SDS011;46330;50.822;7.126;2022-07-12T13:56:55;4.70;;;1.10;;
9140;SDS011;46330;50.822;7.126;2022-07-12T13:59:25;1.95;;;1.00;;
9140;SDS011;46330;50.822;7.126;2022-07-12T14:01:52;1.92;;;1.15;;
9140;SDS011;46330;50.822;7.126;2022-07-12T14:04:21;2.03;;;1.23;;
9140;SDS011;46330;50.822;7.126;2022-07-12T14:06:49;1.83;;;0.70;;
9140;SDS011;46330;50.822;7.126;2022-07-12T14:09:17;1.50;;;1.13;;
9140;SDS011;46330;50.822;7.126;2022-07-12T14:11:45;2.60;;;1.05;;
9140;SDS011;46330;50.822;7.126;2022-07-12T14:14:13;6.20;;;1.00;;
9140;SDS011;46330;50.822;7.126;2022-07-12T14:16:45;1.17;;;1.02;;
9140;SDS011;46330;50.822;7.126;2022-07-12T14:19:13;1.48;;;0.90;;
9140;SDS011;46330;50.822;7.126;2022-07-12T14:21:41;2.70;;;1.00;;
9140;SDS011;46330;50.822;7.126;2022-07-12T14:24:09;2.63;;;1.02;;
9140;SDS011;46330;50.822;7.126;2022-07-12T14:26:37;3.28;;;1.00;;
9140;SDS011;46330;50.822;7.126;2022-07-12T14:29:05;1.77;;;0.95;;
9140;SDS011;46330;50.822;7.126;2022-07-12T14:31:34;5.32;;;1.23;;
9140;SDS011;46330;50.822;7.126;2022-07-12T14:34:03;2.70;;;1.00;;
9140;SDS011;46330;50.822;7.126;2022-07-12T14:36:31;2.55;;;1.00;;
9140;SDS011;46330;50.822;7.126;2022-07-12T14:38:59;3.42;;;2.30;;
9140;SDS011;46330;50.822;7.126;2022-07-12T14:41:27;7.80;;;2.58;;
9140;SDS011;46330;50.822;7.126;2022-07-12T14:43:55;4.53;;;1.20;;
9140;SDS011;46330;50.822;7.126;2022-07-12T14:46:23;3.50;;;1.27;;
9140;SDS011;46330;50.822;7.126;2022-07-12T14:48:51;4.20;;;1.20;;
9140;SDS011;46330;50.822;7.126;2022-07-12T14:51:21;5.00;;;1.02;;
9140;SDS011;46330;50.822;7.126;2022-07-12T14:53:49;1.33;;;1.20;;
9140;SDS011;46330;50.822;7.126;2022-07-12T14:56:18;0.90;;;0.90;;
9140;SDS011;46330;50.822;7.126;2022-07-12T14:58:46;2.65;;;1.00;;
9140;SDS011;46330;50.822;7.126;2022-07-12T15:01:14;2.10;;;1.10;;
9140;SDS011;46330;50.822;7.126;2022-07-12T15:03:42;1.08;;;0.90;;
9140;SDS011;46330;50.822;7.126;2022-07-12T15:06:10;2.08;;;0.93;;
9140;SDS011;46330;50.822;7.126;2022-07-12T15:08:40;4.28;;;0.95;;